createdAt,value
2023-03-04T00:00:08.492Z,87.75
2023-03-04T00:02:57.090Z,87.59
2023-03-04T00:05:25.452Z,87.48
2023-03-04T00:07:54.020Z,87.13
2023-03-04T00:10:22.544Z,87.18
2023-03-04T00:12:51.206Z,87.25
2023-03-04T00:15:19.763Z,87.36
2023-03-04T00:17:48.175Z,87.26
2023-03-04T00:20:17.007Z,87.25
2023-03-04T00:22:45.563Z,87.30
2023-03-04T00:25:13.914Z,87.23
2023-03-04T00:27:42.456Z,87.24
2023-03-04T00:30:12.517Z,87.18
2023-03-04T00:32:41.010Z,87.07
2023-03-04T00:35:21.097Z,87.00
2023-03-04T00:37:50.529Z,86.97
2023-03-04T00:40:35.496Z,87.04
2023-03-04T00:43:09.190Z,87.11
2023-03-04T00:45:37.884Z,87.13
2023-03-04T00:48:14.037Z,87.11
2023-03-04T00:50:42.621Z,87.14
2023-03-04T00:53:11.108Z,87.17
2023-03-04T00:55:39.446Z,87.19
2023-03-04T00:58:07.854Z,87.23
2023-03-04T01:00:36.344Z,87.06
2023-03-04T01:03:04.845Z,87.33
2023-03-04T01:05:35.333Z,87.27
2023-03-04T01:08:04.709Z,87.21
2023-03-04T01:10:33.506Z,87.31
2023-03-04T01:13:01.906Z,87.08
2023-03-04T01:15:30.411Z,86.87
2023-03-04T01:17:59.124Z,86.88
2023-03-04T01:20:27.519Z,86.87
2023-03-04T01:22:55.890Z,86.60
2023-03-04T01:25:24.386Z,86.46
2023-03-04T01:27:52.758Z,86.39
2023-03-04T01:30:21.462Z,86.68
2023-03-04T01:32:50.313Z,86.62
2023-03-04T01:35:18.973Z,86.66
2023-03-04T01:37:47.397Z,86.87
2023-03-04T01:40:15.970Z,86.98
2023-03-04T01:42:44.955Z,87.07
2023-03-04T01:45:16.208Z,87.17
2023-03-04T01:47:48.542Z,87.68
2023-03-04T01:50:21.808Z,87.39
2023-03-04T01:52:50.523Z,87.22
2023-03-04T01:55:20.815Z,87.32
2023-03-04T01:57:50.515Z,87.43
2023-03-04T02:00:23.345Z,87.46
2023-03-04T02:02:54.022Z,87.48
2023-03-04T02:05:22.846Z,87.46
2023-03-04T02:07:52.208Z,87.79
2023-03-04T02:10:21.149Z,87.80
2023-03-04T02:12:50.245Z,87.86
2023-03-04T02:15:18.952Z,87.97
2023-03-04T02:17:49.446Z,88.05
2023-03-04T02:20:25.667Z,88.04
2023-03-04T02:23:03.777Z,88.08
2023-03-04T02:25:37.880Z,88.14
2023-03-04T02:28:05.431Z,88.11
2023-03-04T02:30:34.542Z,88.00
2023-03-04T02:33:02.896Z,88.10
2023-03-04T02:35:31.532Z,88.30
2023-03-04T02:37:59.944Z,88.40
2023-03-04T02:40:30.901Z,88.56
2023-03-04T02:43:00.610Z,88.38
2023-03-04T02:45:35.117Z,88.80
2023-03-04T02:48:04.013Z,88.93
2023-03-04T02:50:35.820Z,89.29
2023-03-04T02:53:04.673Z,89.22
2023-03-04T02:55:33.242Z,89.29
2023-03-04T02:58:01.760Z,89.40
2023-03-04T03:00:30.878Z,89.76
2023-03-04T03:02:59.422Z,89.61
2023-03-04T03:05:29.793Z,89.53
2023-03-04T03:07:58.178Z,89.63
2023-03-04T03:10:26.824Z,89.80
2023-03-04T03:12:55.166Z,89.65
2023-03-04T03:15:23.555Z,89.63
2023-03-04T03:17:52.634Z,89.64
2023-03-04T03:20:21.195Z,89.43
2023-03-04T03:22:49.600Z,89.54
2023-03-04T03:25:18.684Z,89.40
2023-03-04T03:27:47.059Z,89.43
2023-03-04T03:30:15.879Z,89.47
2023-03-04T03:32:44.806Z,89.23
2023-03-04T03:35:13.574Z,89.21
2023-03-04T03:37:41.921Z,89.11
2023-03-04T03:40:13.449Z,89.14
2023-03-04T03:42:41.890Z,89.05
2023-03-04T03:45:12.174Z,88.92
2023-03-04T03:47:40.484Z,89.07
2023-03-04T03:50:10.801Z,88.83
2023-03-04T03:52:39.470Z,89.01
2023-03-04T03:55:09.552Z,88.76
2023-03-04T03:57:37.962Z,88.70
2023-03-04T04:00:10.108Z,88.75
2023-03-04T04:02:38.678Z,88.64
2023-03-04T04:05:09.846Z,88.69
2023-03-04T04:07:38.342Z,88.43
2023-03-04T04:10:08.024Z,88.52
2023-03-04T04:12:36.365Z,88.27
2023-03-04T04:15:07.096Z,88.34
2023-03-04T04:17:35.659Z,88.19
2023-03-04T04:20:05.081Z,88.31
2023-03-04T04:22:33.460Z,88.11
2023-03-04T04:25:02.121Z,88.04
2023-03-04T04:27:30.486Z,88.06
2023-03-04T04:29:58.825Z,87.94
2023-03-04T04:32:27.437Z,87.75
2023-03-04T04:34:55.864Z,87.73
2023-03-04T04:37:24.225Z,87.64
2023-03-04T04:39:54.772Z,87.45
2023-03-04T04:42:23.325Z,87.34
2023-03-04T04:44:52.080Z,87.44
2023-03-04T04:47:20.775Z,87.04
2023-03-04T04:49:49.107Z,87.05
2023-03-04T04:52:17.479Z,86.75
2023-03-04T04:54:46.049Z,86.51
2023-03-04T04:57:14.363Z,86.49
2023-03-04T04:59:42.892Z,86.33
2023-03-04T05:02:11.498Z,86.31
2023-03-04T05:04:39.888Z,86.38
2023-03-04T05:07:08.217Z,86.39
2023-03-04T05:09:36.658Z,86.05
2023-03-04T05:12:05.526Z,85.95
2023-03-04T05:14:33.906Z,86.05
2023-03-04T05:17:02.373Z,86.03
2023-03-04T05:19:30.728Z,86.09
2023-03-04T05:21:59.083Z,85.92
2023-03-04T05:24:27.795Z,85.79
2023-03-04T05:26:56.160Z,86.12
2023-03-04T05:29:24.579Z,86.05
2023-03-04T05:31:53.054Z,86.05
2023-03-04T05:34:21.386Z,86.12
2023-03-04T05:36:49.756Z,86.05
2023-03-04T05:39:18.596Z,86.13
2023-03-04T05:41:47.194Z,86.01
2023-03-04T05:44:15.675Z,86.13
2023-03-04T05:46:44.115Z,86.23
2023-03-04T05:49:12.410Z,86.25
2023-03-04T05:51:40.736Z,86.12
2023-03-04T05:54:09.264Z,86.19
2023-03-04T05:56:37.701Z,86.20
2023-03-04T05:59:06.262Z,86.26
2023-03-04T06:01:34.772Z,86.17
2023-03-04T06:04:03.201Z,86.07
2023-03-04T06:06:31.646Z,86.24
2023-03-04T06:09:00.672Z,86.29
2023-03-04T06:11:29.080Z,86.17
2023-03-04T06:13:57.740Z,86.03
2023-03-04T06:16:26.535Z,86.15
2023-03-04T06:18:54.959Z,86.27
2023-03-04T06:21:23.316Z,86.13
2023-03-04T06:23:51.655Z,86.22
2023-03-04T06:26:20.003Z,86.11
2023-03-04T06:28:48.384Z,86.15
2023-03-04T06:31:17.170Z,86.10
2023-03-04T06:33:45.974Z,86.09
2023-03-04T06:36:14.446Z,86.09
2023-03-04T06:38:42.817Z,86.05
2023-03-04T06:41:12.583Z,86.25
2023-03-04T06:43:41.515Z,86.16
2023-03-04T06:46:10.005Z,86.49
2023-03-04T06:48:38.419Z,86.35
2023-03-04T06:51:08.482Z,86.42
2023-03-04T06:53:37.127Z,86.43
2023-03-04T06:56:06.822Z,86.60
2023-03-04T06:58:35.834Z,86.49
2023-03-04T07:01:13.510Z,86.51
2023-03-04T07:03:42.434Z,86.52
2023-03-04T07:06:11.646Z,86.74
2023-03-04T07:08:40.379Z,86.79
2023-03-04T07:11:09.082Z,86.66
2023-03-04T07:13:37.893Z,86.65
2023-03-04T07:16:07.871Z,86.78
2023-03-04T07:18:37.150Z,86.84
2023-03-04T07:21:06.691Z,86.74
2023-03-04T07:23:35.937Z,86.61
2023-03-04T07:26:05.307Z,86.45
2023-03-04T07:28:33.791Z,86.39
2023-03-04T07:31:10.261Z,86.54
2023-03-04T07:33:38.941Z,86.27
2023-03-04T07:36:08.213Z,86.16
2023-03-04T07:38:36.801Z,86.10
2023-03-04T07:41:05.705Z,86.09
2023-03-04T07:43:34.095Z,85.99
2023-03-04T07:46:02.960Z,86.04
2023-03-04T07:48:31.481Z,85.91
2023-03-04T07:51:08.930Z,85.82
2023-03-04T07:53:38.995Z,85.79
2023-03-04T07:56:10.363Z,85.51
2023-03-04T07:58:38.905Z,85.28
2023-03-04T08:01:11.284Z,85.24
2023-03-04T08:03:39.775Z,85.17
2023-03-04T08:06:10.303Z,85.35
2023-03-04T08:08:38.818Z,85.14
2023-03-04T08:11:08.606Z,84.78
2023-03-04T08:13:37.080Z,84.62
2023-03-04T08:16:07.491Z,84.71
2023-03-04T08:18:35.901Z,84.61
2023-03-04T08:21:09.678Z,84.49
2023-03-04T08:23:38.421Z,84.44
2023-03-04T08:26:08.424Z,84.20
2023-03-04T08:28:37.235Z,83.94
2023-03-04T08:31:06.022Z,83.99
2023-03-04T08:33:35.069Z,83.77
2023-03-04T08:36:03.766Z,83.85
2023-03-04T08:38:32.172Z,83.78
2023-03-04T08:41:00.864Z,84.30
2023-03-04T08:43:29.719Z,83.25
2023-03-04T08:45:58.215Z,83.62
2023-03-04T08:48:26.576Z,83.32
2023-03-04T08:50:55.045Z,83.16
2023-03-04T08:53:23.481Z,83.18
2023-03-04T08:55:53.027Z,83.36
2023-03-04T08:58:21.347Z,83.42
2023-03-04T09:00:50.958Z,83.53
2023-03-04T09:03:21.154Z,83.68
2023-03-04T09:05:49.642Z,83.72
2023-03-04T09:08:18.133Z,83.78
2023-03-04T09:10:47.366Z,83.88
2023-03-04T09:13:16.296Z,83.93
2023-03-04T09:15:48.567Z,83.99
2023-03-04T09:18:18.132Z,83.85
2023-03-04T09:20:46.643Z,83.69
2023-03-04T09:23:15.511Z,83.87
2023-03-04T09:25:45.866Z,83.63
2023-03-04T09:28:15.339Z,83.43
2023-03-04T09:30:44.084Z,83.46
2023-03-04T09:33:12.958Z,83.12
2023-03-04T09:35:41.417Z,83.39
2023-03-04T09:38:10.285Z,83.26
2023-03-04T09:40:41.799Z,83.25
2023-03-04T09:43:18.386Z,83.37
2023-03-04T09:45:49.960Z,83.51
2023-03-04T09:48:22.312Z,83.46
2023-03-04T09:50:59.715Z,83.50
2023-03-04T09:53:36.949Z,83.52
2023-03-04T09:56:06.404Z,83.47
2023-03-04T09:58:44.113Z,83.48
2023-03-04T10:01:20.205Z,83.65
2023-03-04T10:03:53.127Z,83.51
2023-03-04T10:06:22.810Z,83.86
2023-03-04T10:08:55.465Z,83.86
2023-03-04T10:11:27.666Z,83.88
2023-03-04T10:14:02.973Z,83.94
2023-03-04T10:16:35.340Z,84.04
2023-03-04T10:19:18.907Z,84.06
2023-03-04T10:21:50.641Z,84.01
2023-03-04T10:24:22.492Z,83.90
2023-03-04T10:26:53.021Z,83.91
2023-03-04T10:29:24.226Z,83.84
2023-03-04T10:31:55.296Z,83.82
2023-03-04T10:34:24.583Z,83.61
2023-03-04T10:36:59.936Z,83.73
2023-03-04T10:39:31.056Z,83.35
2023-03-04T10:42:01.935Z,83.47
2023-03-04T10:44:32.213Z,83.30
2023-03-04T10:47:00.796Z,83.47
2023-03-04T10:49:29.797Z,83.66
2023-03-04T10:52:04.075Z,83.99
2023-03-04T10:54:36.944Z,84.49
2023-03-04T10:57:11.748Z,84.82
2023-03-04T10:59:45.379Z,84.98
2023-03-04T11:02:32.074Z,85.39
2023-03-04T11:05:16.237Z,85.70
2023-03-04T11:07:54.973Z,85.75
2023-03-04T11:10:27.627Z,86.10
2023-03-04T11:13:00.501Z,86.56
2023-03-04T11:15:30.750Z,86.33
2023-03-04T11:18:02.376Z,86.78
2023-03-04T11:20:33.082Z,87.07
2023-03-04T11:23:04.759Z,87.48
2023-03-04T11:25:35.459Z,88.08
2023-03-04T11:28:06.502Z,87.76
2023-03-04T11:30:39.936Z,87.81
2023-03-04T11:33:24.095Z,87.87
2023-03-04T11:35:59.315Z,88.19
2023-03-04T11:38:33.119Z,88.49
2023-03-04T11:41:06.472Z,88.51
2023-03-04T11:43:38.127Z,88.32
2023-03-04T11:46:28.195Z,88.16
2023-03-04T11:49:05.707Z,88.36
2023-03-04T11:51:38.015Z,88.55
2023-03-04T11:54:17.369Z,88.55
2023-03-04T11:56:47.642Z,88.34
2023-03-04T11:59:29.826Z,88.24
2023-03-04T12:02:16.312Z,88.45
2023-03-04T12:05:10.863Z,88.57
2023-03-04T12:07:52.099Z,88.38
2023-03-04T12:10:26.638Z,88.42
2023-03-04T12:13:35.596Z,88.51
2023-03-04T12:16:15.178Z,88.91
2023-03-04T12:18:56.297Z,88.57
2023-03-04T12:21:38.809Z,89.07
2023-03-04T12:24:21.395Z,88.57
2023-03-04T12:26:52.362Z,88.59
2023-03-04T12:29:28.328Z,88.95
2023-03-04T12:32:03.804Z,89.30
2023-03-04T12:34:39.936Z,89.46
2023-03-04T12:37:29.730Z,89.77
2023-03-04T12:40:11.704Z,89.43
2023-03-04T12:42:54.880Z,89.77
2023-03-04T12:45:28.023Z,89.39
2023-03-04T12:48:02.352Z,89.46
2023-03-04T12:50:32.356Z,88.76
2023-03-04T12:53:09.411Z,88.46
2023-03-04T12:55:40.420Z,87.98
2023-03-04T12:58:15.691Z,86.89
2023-03-04T13:00:49.950Z,86.08
2023-03-04T13:03:23.591Z,86.24
2023-03-04T13:06:05.730Z,85.74
2023-03-04T13:08:39.935Z,85.29
2023-03-04T13:11:38.959Z,85.23
2023-03-04T13:14:08.895Z,85.25
2023-03-04T13:16:39.979Z,85.01
2023-03-04T13:19:40.408Z,84.93
2023-03-04T13:22:41.703Z,84.15
2023-03-04T13:25:34.087Z,82.73
2023-03-04T13:28:18.202Z,82.02
2023-03-04T13:31:11.130Z,80.90
2023-03-04T13:33:58.268Z,81.28
2023-03-04T13:36:56.592Z,81.59
2023-03-04T13:39:39.257Z,79.98
2023-03-04T13:42:38.247Z,79.97
2023-03-04T13:45:32.161Z,80.28
2023-03-04T13:48:01.318Z,80.78
2023-03-04T13:50:41.900Z,83.22
2023-03-04T13:53:30.826Z,84.52
2023-03-04T13:56:23.453Z,85.51
2023-03-04T13:59:00.703Z,86.64
2023-03-04T14:01:31.351Z,87.16
2023-03-04T14:04:00.531Z,86.63
2023-03-04T14:06:30.039Z,86.48
2023-03-04T14:08:59.145Z,86.50
2023-03-04T14:11:34.360Z,86.63
2023-03-04T14:14:06.743Z,86.61
2023-03-04T14:16:38.955Z,86.70
2023-03-04T14:19:14.058Z,86.18
2023-03-04T14:21:46.092Z,85.05
2023-03-04T14:24:16.775Z,83.85
2023-03-04T14:26:45.542Z,83.95
2023-03-04T14:29:25.100Z,83.33
2023-03-04T14:31:54.062Z,81.40
2023-03-04T14:34:29.008Z,80.55
2023-03-04T14:36:57.527Z,78.90
2023-03-04T14:39:27.197Z,77.41
2023-03-04T14:41:57.924Z,77.57
2023-03-04T14:44:35.036Z,76.41
2023-03-04T14:47:10.640Z,76.27
2023-03-04T14:49:39.927Z,75.87
2023-03-04T14:52:27.877Z,74.51
2023-03-04T14:55:16.692Z,74.18
2023-03-04T14:57:47.125Z,74.54
2023-03-04T15:00:23.437Z,72.85
2023-03-04T15:02:53.710Z,73.20
2023-03-04T15:05:27.180Z,70.64
2023-03-04T15:07:58.010Z,69.23
2023-03-04T15:10:30.336Z,66.96
2023-03-04T15:13:01.008Z,67.01
2023-03-04T15:15:40.069Z,67.12
2023-03-04T15:18:25.538Z,67.57
2023-03-04T15:20:59.133Z,66.45
2023-03-04T15:23:29.710Z,66.71
2023-03-04T15:25:59.852Z,65.22
2023-03-04T15:28:32.377Z,60.80
2023-03-04T15:31:01.334Z,55.80
2023-03-04T15:33:29.848Z,55.67
2023-03-04T15:36:00.153Z,55.86
2023-03-04T15:38:30.331Z,52.70
2023-03-04T15:40:59.240Z,53.61
2023-03-04T15:43:27.705Z,54.61
2023-03-04T15:45:56.536Z,56.61
2023-03-04T15:48:25.012Z,54.53
2023-03-04T15:50:57.451Z,56.76
2023-03-04T15:53:31.809Z,56.44
2023-03-04T15:56:01.564Z,57.82
2023-03-04T15:58:34.542Z,58.14
2023-03-04T16:01:04.563Z,58.19
2023-03-04T16:03:32.986Z,58.97
2023-03-04T16:06:01.387Z,59.53
2023-03-04T16:08:29.899Z,58.55
2023-03-04T16:10:58.265Z,57.85
2023-03-04T16:13:26.612Z,56.97
2023-03-04T16:15:54.983Z,57.04
2023-03-04T16:18:24.000Z,54.94
2023-03-04T16:20:52.526Z,56.81
2023-03-04T16:23:22.028Z,56.97
2023-03-04T16:25:52.549Z,55.68
2023-03-04T16:28:21.015Z,54.31
2023-03-04T16:30:49.960Z,53.75
2023-03-04T16:33:18.545Z,53.45
2023-03-04T16:35:47.223Z,54.77
2023-03-04T16:38:22.322Z,54.73
2023-03-04T16:40:50.705Z,51.42
2023-03-04T16:43:19.087Z,50.38
2023-03-04T16:45:48.251Z,51.40
2023-03-04T16:48:17.226Z,53.02
2023-03-04T16:50:45.668Z,54.58
2023-03-04T16:53:26.873Z,53.49
2023-03-04T16:55:55.339Z,52.86
2023-03-04T16:58:23.723Z,54.81
2023-03-04T17:00:52.133Z,52.45
2023-03-04T17:03:20.635Z,51.50
2023-03-04T17:05:49.185Z,49.73
2023-03-04T17:08:17.639Z,50.14
2023-03-04T17:10:46.234Z,49.62
2023-03-04T17:13:14.943Z,47.53
2023-03-04T17:15:44.900Z,47.01
2023-03-04T17:18:13.412Z,47.35
2023-03-04T17:20:41.865Z,46.82
2023-03-04T17:23:10.397Z,47.56
2023-03-04T17:25:38.791Z,48.15
2023-03-04T17:28:07.255Z,48.53
2023-03-04T17:30:35.686Z,48.67
2023-03-04T17:33:04.098Z,47.73
2023-03-04T17:35:32.608Z,48.95
2023-03-04T17:38:01.062Z,48.64
2023-03-04T17:40:29.464Z,48.22
2023-03-04T17:42:58.091Z,48.14
2023-03-04T17:45:26.560Z,49.23
2023-03-04T17:47:54.856Z,48.68
2023-03-04T17:50:23.243Z,47.50
2023-03-04T17:52:51.566Z,47.37
2023-03-04T17:55:19.898Z,48.27
2023-03-04T17:57:48.394Z,48.70
2023-03-04T18:00:19.299Z,49.05
2023-03-04T18:02:47.954Z,48.01
2023-03-04T18:05:16.286Z,47.79
2023-03-04T18:07:44.710Z,48.78
2023-03-04T18:10:13.375Z,47.33
2023-03-04T18:12:41.686Z,46.31
2023-03-04T18:15:11.276Z,47.39
2023-03-04T18:17:42.021Z,48.63
2023-03-04T18:20:12.636Z,49.16
2023-03-04T18:22:41.147Z,47.74
2023-03-04T18:25:11.983Z,46.95
2023-03-04T18:27:41.269Z,47.68
2023-03-04T18:30:13.297Z,47.30
2023-03-04T18:32:51.317Z,48.42
2023-03-04T18:35:21.006Z,48.67
2023-03-04T18:37:49.622Z,47.73
2023-03-04T18:40:18.865Z,47.03
2023-03-04T18:42:47.599Z,45.80
2023-03-04T18:45:16.687Z,47.29
2023-03-04T18:47:47.040Z,46.96
2023-03-04T18:50:16.361Z,46.49
2023-03-04T18:52:45.054Z,46.69
2023-03-04T18:55:13.575Z,47.07
2023-03-04T18:57:45.317Z,47.24
2023-03-04T19:00:16.230Z,47.90
2023-03-04T19:02:48.860Z,46.66
2023-03-04T19:05:20.565Z,46.45
2023-03-04T19:07:49.197Z,46.40
2023-03-04T19:10:18.119Z,46.74
2023-03-04T19:12:46.525Z,47.12
2023-03-04T19:15:15.159Z,47.77
2023-03-04T19:17:45.076Z,47.38
2023-03-04T19:20:14.925Z,47.91
2023-03-04T19:22:43.832Z,47.01
2023-03-04T19:25:12.508Z,46.80
2023-03-04T19:27:41.112Z,47.37
2023-03-04T19:30:12.012Z,47.01
2023-03-04T19:32:40.473Z,47.16
2023-03-04T19:35:09.938Z,48.08
2023-03-04T19:37:38.376Z,48.23
2023-03-04T19:40:10.026Z,49.00
2023-03-04T19:42:38.677Z,49.44
2023-03-04T19:45:09.153Z,49.65
2023-03-04T19:47:37.935Z,49.53
2023-03-04T19:50:08.725Z,49.38
2023-03-04T19:52:37.618Z,49.10
2023-03-04T19:55:07.187Z,48.86
2023-03-04T19:57:35.580Z,49.14
2023-03-04T20:00:05.162Z,49.63
2023-03-04T20:02:34.228Z,49.94
2023-03-04T20:05:03.363Z,50.01
2023-03-04T20:07:31.758Z,50.28
2023-03-04T20:10:00.589Z,50.11
2023-03-04T20:12:30.738Z,50.17
2023-03-04T20:14:59.263Z,49.68
2023-03-04T20:17:27.648Z,49.89
2023-03-04T20:19:56.372Z,49.49
2023-03-04T20:22:24.844Z,49.39
2023-03-04T20:24:54.331Z,49.37
2023-03-04T20:27:23.148Z,50.26
2023-03-04T20:29:52.301Z,50.08
2023-03-04T20:32:20.785Z,50.03
2023-03-04T20:34:53.509Z,49.95
2023-03-04T20:37:22.093Z,50.46
2023-03-04T20:39:50.580Z,50.17
2023-03-04T20:42:18.967Z,50.19
2023-03-04T20:44:47.454Z,50.04
2023-03-04T20:47:15.843Z,50.18
2023-03-04T20:49:44.537Z,50.36
2023-03-04T20:52:13.906Z,50.28
2023-03-04T20:54:42.266Z,50.72
2023-03-04T20:57:11.418Z,50.79
2023-03-04T20:59:40.534Z,51.29
2023-03-04T21:02:11.448Z,51.38
2023-03-04T21:04:40.064Z,51.09
2023-03-04T21:07:08.518Z,51.23
2023-03-04T21:09:36.907Z,51.75
2023-03-04T21:12:06.174Z,50.97
2023-03-04T21:14:34.549Z,50.88
2023-03-04T21:17:04.360Z,50.83
2023-03-04T21:19:35.896Z,50.80
2023-03-04T21:22:04.683Z,51.31
2023-03-04T21:24:34.621Z,51.72
2023-03-04T21:27:03.982Z,51.91
2023-03-04T21:29:32.600Z,51.67
2023-03-04T21:32:20.694Z,52.03
2023-03-04T21:34:51.399Z,52.25
2023-03-04T21:37:20.080Z,52.12
2023-03-04T21:39:48.482Z,52.19
2023-03-04T21:42:16.971Z,51.83
2023-03-04T21:44:49.701Z,52.06
2023-03-04T21:47:19.215Z,51.56
2023-03-04T21:49:47.846Z,51.58
2023-03-04T21:52:16.727Z,51.43
2023-03-04T21:54:45.307Z,51.74
2023-03-04T21:57:13.927Z,51.19
2023-03-04T21:59:42.336Z,50.95
2023-03-04T22:02:14.850Z,51.26
2023-03-04T22:04:43.412Z,51.53
2023-03-04T22:07:12.240Z,50.96
2023-03-04T22:09:40.833Z,51.23
2023-03-04T22:12:09.468Z,51.48
2023-03-04T22:14:38.286Z,51.66
2023-03-04T22:17:07.040Z,51.58
2023-03-04T22:19:35.473Z,51.62
2023-03-04T22:22:04.057Z,51.77
2023-03-04T22:24:32.579Z,52.13
2023-03-04T22:27:00.962Z,51.86
2023-03-04T22:29:29.348Z,52.04
2023-03-04T22:31:58.121Z,52.30
2023-03-04T22:34:26.703Z,52.42
2023-03-04T22:36:55.007Z,52.22
2023-03-04T22:39:23.460Z,52.51
2023-03-04T22:41:51.920Z,52.45
2023-03-04T22:44:20.378Z,52.07
2023-03-04T22:46:48.823Z,52.24
2023-03-04T22:49:17.313Z,52.64
2023-03-04T22:51:46.126Z,53.03
2023-03-04T22:54:15.724Z,52.92
2023-03-04T22:56:44.164Z,52.64
2023-03-04T22:59:12.691Z,52.35
2023-03-04T23:01:41.485Z,52.81
2023-03-04T23:04:09.913Z,53.24
2023-03-04T23:06:38.380Z,53.16
2023-03-04T23:09:07.369Z,52.94
2023-03-04T23:11:36.464Z,52.81
2023-03-04T23:14:07.399Z,52.88
2023-03-04T23:16:38.811Z,53.31
2023-03-04T23:19:07.520Z,53.36
2023-03-04T23:21:36.604Z,53.47
2023-03-04T23:24:06.720Z,53.25
2023-03-04T23:26:38.415Z,53.22
2023-03-04T23:29:08.659Z,53.59
2023-03-04T23:31:37.594Z,53.47
2023-03-04T23:34:07.182Z,53.02
2023-03-04T23:36:37.136Z,53.28
2023-03-04T23:39:07.423Z,53.40
2023-03-04T23:41:36.295Z,52.47
2023-03-04T23:44:04.790Z,52.78
2023-03-04T23:46:33.211Z,52.86
2023-03-04T23:49:01.847Z,52.92
2023-03-04T23:51:30.913Z,53.40
2023-03-04T23:54:00.315Z,53.72
2023-03-04T23:56:30.224Z,54.15
2023-03-04T23:58:59.589Z,54.30
